createdAt,value
2023-02-11T00:01:25.455Z,24.47
2023-02-11T00:03:52.598Z,23.07
2023-02-11T00:06:19.381Z,19.90
2023-02-11T00:08:45.963Z,21.77
2023-02-11T00:11:14.920Z,23.30
2023-02-11T00:13:42.627Z,24.57
2023-02-11T00:16:12.166Z,23.13
2023-02-11T00:18:38.982Z,22.30
2023-02-11T00:21:17.167Z,21.50
2023-02-11T00:23:45.005Z,24.90
2023-02-11T00:26:13.447Z,25.70
2023-02-11T00:28:40.586Z,24.40
2023-02-11T00:31:07.409Z,23.67
2023-02-11T00:33:33.804Z,24.30
2023-02-11T00:36:04.905Z,28.67
2023-02-11T00:38:31.540Z,22.67
2023-02-11T00:40:57.960Z,21.97
2023-02-11T00:43:25.373Z,23.03
2023-02-11T00:45:52.483Z,23.17
2023-02-11T00:48:19.131Z,25.33
2023-02-11T00:50:45.497Z,23.00
2023-02-11T00:53:12.157Z,23.17
2023-02-11T00:55:38.579Z,20.93
2023-02-11T00:58:05.012Z,22.23
2023-02-11T01:00:31.477Z,19.63
2023-02-11T01:02:57.837Z,21.07
2023-02-11T01:05:24.378Z,21.77
2023-02-11T01:07:50.883Z,20.60
2023-02-11T01:10:17.782Z,22.73
2023-02-11T01:12:44.165Z,24.33
2023-02-11T01:15:14.644Z,22.07
2023-02-11T01:17:41.031Z,19.90
2023-02-11T01:20:11.791Z,22.07
2023-02-11T01:22:39.654Z,23.60
2023-02-11T01:25:09.179Z,20.80
2023-02-11T01:27:36.465Z,24.07
2023-02-11T01:30:04.303Z,19.93
2023-02-11T01:32:30.644Z,19.47
2023-02-11T01:34:57.002Z,21.60
2023-02-11T01:37:23.662Z,17.30
2023-02-11T01:39:50.070Z,21.57
2023-02-11T01:42:19.438Z,19.67
2023-02-11T01:44:49.669Z,18.77
2023-02-11T01:47:16.018Z,20.50
2023-02-11T01:49:49.840Z,21.37
2023-02-11T01:52:25.546Z,19.13
2023-02-11T01:55:14.315Z,24.53
2023-02-11T01:57:47.410Z,19.43
2023-02-11T02:00:18.113Z,22.03
2023-02-11T02:02:54.841Z,23.57
2023-02-11T02:05:40.047Z,23.63
2023-02-11T02:08:21.660Z,21.60
2023-02-11T02:10:56.277Z,23.57
2023-02-11T02:13:24.537Z,24.30
2023-02-11T02:15:54.573Z,21.77
2023-02-11T02:18:39.167Z,23.33
2023-02-11T02:21:30.878Z,17.93
2023-02-11T02:24:12.545Z,22.20
2023-02-11T02:26:55.447Z,23.93
2023-02-11T02:29:55.996Z,21.63
2023-02-11T02:32:26.200Z,20.27
2023-02-11T02:35:17.164Z,23.10
2023-02-11T02:38:06.877Z,22.43
2023-02-11T02:40:41.408Z,22.70
2023-02-11T02:43:10.380Z,19.80
2023-02-11T02:45:36.848Z,20.43
2023-02-11T02:48:03.280Z,20.27
2023-02-11T02:50:35.203Z,25.47
2023-02-11T02:53:19.295Z,20.93
2023-02-11T02:56:03.254Z,22.70
2023-02-11T02:58:47.181Z,18.77
2023-02-11T03:01:25.931Z,21.97
2023-02-11T03:04:05.810Z,21.97
2023-02-11T03:06:57.244Z,23.40
2023-02-11T03:09:36.288Z,23.00
2023-02-11T03:12:04.549Z,24.83
2023-02-11T03:14:32.158Z,21.47
2023-02-11T03:17:01.178Z,23.13
2023-02-11T03:19:33.273Z,23.87
2023-02-11T03:22:02.238Z,25.37
2023-02-11T03:24:33.194Z,28.43
2023-02-11T03:27:33.322Z,22.67
2023-02-11T03:30:13.287Z,24.80
2023-02-11T03:32:49.319Z,23.17
2023-02-11T03:35:23.067Z,25.30
2023-02-11T03:37:55.996Z,25.27
2023-02-11T03:40:26.278Z,24.50
2023-02-11T03:42:52.540Z,26.73
2023-02-11T03:45:22.115Z,23.93
2023-02-11T03:48:11.623Z,27.03
2023-02-11T03:50:39.997Z,27.87
2023-02-11T03:53:07.830Z,26.07
2023-02-11T03:55:38.584Z,29.07
2023-02-11T03:58:05.268Z,24.87
2023-02-11T04:00:34.724Z,26.13
2023-02-11T04:03:01.229Z,29.30
2023-02-11T04:05:27.713Z,23.57
2023-02-11T04:07:54.068Z,25.87
2023-02-11T04:10:20.691Z,24.97
2023-02-11T04:12:47.268Z,24.70
2023-02-11T04:15:13.746Z,22.23
2023-02-11T04:17:41.606Z,34.40
2023-02-11T04:20:09.344Z,25.63
2023-02-11T04:22:36.075Z,28.73
2023-02-11T04:25:03.959Z,23.83
2023-02-11T04:27:30.478Z,31.10
2023-02-11T04:29:56.920Z,30.23
2023-02-11T04:32:23.473Z,22.50
2023-02-11T04:34:49.875Z,29.47
2023-02-11T04:37:16.496Z,25.77
2023-02-11T04:39:42.880Z,27.97
2023-02-11T04:42:09.376Z,25.43
2023-02-11T04:44:35.738Z,27.37
2023-02-11T04:47:02.152Z,35.20
2023-02-11T04:49:28.809Z,29.57
2023-02-11T04:51:55.219Z,24.23
2023-02-11T04:54:22.105Z,21.53
2023-02-11T04:56:49.644Z,23.53
2023-02-11T04:59:16.026Z,25.37
2023-02-11T05:01:42.737Z,29.10
2023-02-11T05:04:09.195Z,24.23
2023-02-11T05:06:35.722Z,25.23
2023-02-11T05:09:02.107Z,24.87
2023-02-11T05:11:28.463Z,22.63
2023-02-11T05:13:55.014Z,26.17
2023-02-11T05:16:21.828Z,24.20
2023-02-11T05:18:52.438Z,25.87
2023-02-11T05:21:19.348Z,24.43
2023-02-11T05:23:46.257Z,22.57
2023-02-11T05:26:13.807Z,25.87
2023-02-11T05:28:40.466Z,23.27
2023-02-11T05:31:07.287Z,28.47
2023-02-11T05:33:34.157Z,28.97
2023-02-11T05:36:09.033Z,28.23
2023-02-11T05:38:36.308Z,28.97
2023-02-11T05:41:04.670Z,31.97
2023-02-11T05:43:31.479Z,25.77
2023-02-11T05:45:58.108Z,33.13
2023-02-11T05:48:24.451Z,30.93
2023-02-11T05:50:50.809Z,23.30
2023-02-11T05:53:17.286Z,27.00
2023-02-11T05:55:44.055Z,27.23
2023-02-11T05:58:10.883Z,25.37
2023-02-11T06:00:37.686Z,28.43
2023-02-11T06:03:07.030Z,25.10
2023-02-11T06:05:33.747Z,26.20
2023-02-11T06:08:00.155Z,25.10
2023-02-11T06:10:26.951Z,26.43
2023-02-11T06:12:53.372Z,26.00
2023-02-11T06:15:19.728Z,28.67
2023-02-11T06:17:46.110Z,30.43
2023-02-11T06:20:12.680Z,27.73
2023-02-11T06:22:39.125Z,27.20
2023-02-11T06:25:05.992Z,29.97
2023-02-11T06:27:32.456Z,31.37
2023-02-11T06:29:58.819Z,31.40
2023-02-11T06:32:45.092Z,26.53
2023-02-11T06:35:13.672Z,27.87
2023-02-11T06:37:41.060Z,32.53
2023-02-11T06:40:08.516Z,34.47
2023-02-11T06:42:36.155Z,26.90
2023-02-11T06:45:02.714Z,31.77
2023-02-11T06:47:29.101Z,29.37
2023-02-11T06:49:55.690Z,28.57
2023-02-11T06:52:22.154Z,27.13
2023-02-11T06:54:48.530Z,31.30
2023-02-11T06:57:14.973Z,29.23
2023-02-11T06:59:41.389Z,29.03
2023-02-11T07:02:10.239Z,29.47
2023-02-11T07:04:36.700Z,28.50
2023-02-11T07:07:03.031Z,27.30
2023-02-11T07:09:29.366Z,28.23
2023-02-11T07:11:55.697Z,31.57
2023-02-11T07:14:22.046Z,32.17
2023-02-11T07:16:48.379Z,29.60
2023-02-11T07:19:14.757Z,34.83
2023-02-11T07:21:41.271Z,30.90
2023-02-11T07:24:11.023Z,30.47
2023-02-11T07:26:38.117Z,30.23
2023-02-11T07:29:04.691Z,34.37
2023-02-11T07:31:31.827Z,30.87
2023-02-11T07:34:00.436Z,30.27
2023-02-11T07:36:27.936Z,34.30
2023-02-11T07:38:54.387Z,32.97
2023-02-11T07:41:22.774Z,36.93
2023-02-11T07:43:49.909Z,39.73
2023-02-11T07:46:19.879Z,38.43
2023-02-11T07:48:46.828Z,34.13
2023-02-11T07:51:22.737Z,34.53
2023-02-11T07:53:49.660Z,40.37
2023-02-11T07:56:17.148Z,39.03
2023-02-11T07:58:44.055Z,42.33
2023-02-11T08:01:13.250Z,38.93
2023-02-11T08:03:41.905Z,41.73
2023-02-11T08:06:11.639Z,44.03
2023-02-11T08:08:38.275Z,40.77
2023-02-11T08:11:22.046Z,39.33
2023-02-11T08:13:49.198Z,39.70
2023-02-11T08:16:23.844Z,44.40
2023-02-11T08:18:51.638Z,40.93
2023-02-11T08:21:18.815Z,37.43
2023-02-11T08:23:46.195Z,37.37
2023-02-11T08:26:15.794Z,41.13
2023-02-11T08:28:44.137Z,37.97
2023-02-11T08:31:17.206Z,38.60
2023-02-11T08:33:44.136Z,39.70
2023-02-11T08:36:12.656Z,42.20
2023-02-11T08:38:39.063Z,40.13
2023-02-11T08:41:05.780Z,47.93
2023-02-11T08:43:33.233Z,40.73
2023-02-11T08:46:02.147Z,37.30
2023-02-11T08:48:29.367Z,38.37
2023-02-11T08:50:56.718Z,38.80
2023-02-11T08:53:23.496Z,43.03
2023-02-11T08:55:54.878Z,41.57
2023-02-11T08:58:22.255Z,50.13
2023-02-11T09:00:50.121Z,41.47
2023-02-11T09:03:17.581Z,42.57
2023-02-11T09:05:46.437Z,45.00
2023-02-11T09:08:13.055Z,43.03
2023-02-11T09:10:40.204Z,46.07
2023-02-11T09:13:07.634Z,46.47
2023-02-11T09:15:34.300Z,40.10
2023-02-11T09:18:01.272Z,39.03
2023-02-11T09:20:27.921Z,41.17
2023-02-11T09:22:56.602Z,41.83
2023-02-11T09:25:22.965Z,41.83
2023-02-11T09:27:49.843Z,39.60
2023-02-11T09:30:16.307Z,47.10
2023-02-11T09:32:42.838Z,41.47
2023-02-11T09:35:09.196Z,44.13
2023-02-11T09:37:37.348Z,41.43
2023-02-11T09:40:04.157Z,39.40
2023-02-11T09:42:38.817Z,39.07
2023-02-11T09:45:20.879Z,40.40
2023-02-11T09:48:06.276Z,37.83
2023-02-11T09:50:36.975Z,36.43
2023-02-11T09:53:14.545Z,43.40
2023-02-11T09:55:48.318Z,42.53
2023-02-11T09:58:19.503Z,44.20
2023-02-11T10:00:56.767Z,40.13
2023-02-11T10:03:41.529Z,34.80
2023-02-11T10:06:16.115Z,34.13
2023-02-11T10:08:54.670Z,39.70
2023-02-11T10:11:32.681Z,34.40
2023-02-11T10:14:29.499Z,29.40
2023-02-11T10:17:20.166Z,38.30
2023-02-11T10:20:02.850Z,33.63
2023-02-11T10:22:36.621Z,33.93
2023-02-11T10:25:24.194Z,31.47
2023-02-11T10:27:51.827Z,35.40
2023-02-11T10:30:27.148Z,36.10
2023-02-11T10:32:56.311Z,37.47
2023-02-11T10:35:23.988Z,36.10
2023-02-11T10:37:50.665Z,35.87
2023-02-11T10:40:21.082Z,34.97
2023-02-11T10:43:11.026Z,33.90
2023-02-11T10:45:49.979Z,34.77
2023-02-11T10:48:35.110Z,32.77
2023-02-11T10:51:14.591Z,34.73
2023-02-11T10:53:41.601Z,33.07
2023-02-11T10:56:12.335Z,34.10
2023-02-11T10:58:46.070Z,34.87
2023-02-11T11:01:23.968Z,32.10
2023-02-11T11:03:52.228Z,30.63
2023-02-11T11:06:31.774Z,29.00
2023-02-11T11:08:58.577Z,33.00
2023-02-11T11:11:26.535Z,31.57
2023-02-11T11:13:57.929Z,29.30
2023-02-11T11:16:28.600Z,34.17
2023-02-11T11:19:06.924Z,31.57
2023-02-11T11:21:50.522Z,30.97
2023-02-11T11:24:33.607Z,34.90
2023-02-11T11:27:02.909Z,31.27
2023-02-11T11:29:32.440Z,31.70
2023-02-11T11:32:04.610Z,29.87
2023-02-11T11:34:38.523Z,29.77
2023-02-11T11:37:27.060Z,30.80
2023-02-11T11:40:16.188Z,29.53
2023-02-11T11:42:43.046Z,28.63
2023-02-11T11:45:15.570Z,30.70
2023-02-11T11:47:52.562Z,30.40
2023-02-11T11:50:35.478Z,32.87
2023-02-11T11:53:04.933Z,29.77
2023-02-11T11:55:37.873Z,30.50
2023-02-11T11:58:05.650Z,29.53
2023-02-11T12:01:00.188Z,32.23
2023-02-11T12:04:02.478Z,31.17
2023-02-11T12:06:46.461Z,32.00
2023-02-11T12:09:36.272Z,32.90
2023-02-11T12:12:26.515Z,31.90
2023-02-11T12:14:55.964Z,33.60
2023-02-11T12:17:39.977Z,34.80
2023-02-11T12:20:29.669Z,31.03
2023-02-11T12:23:14.286Z,33.03
2023-02-11T12:25:53.908Z,32.87
2023-02-11T12:28:43.842Z,32.90
2023-02-11T12:31:47.145Z,32.57
2023-02-11T12:34:40.136Z,34.87
2023-02-11T12:37:29.812Z,37.00
2023-02-11T12:40:17.803Z,32.63
2023-02-11T12:43:17.214Z,37.67
2023-02-11T12:45:59.224Z,35.23
2023-02-11T12:49:03.399Z,34.83
2023-02-11T12:51:54.168Z,33.90
2023-02-11T12:54:47.614Z,46.90
2023-02-11T12:57:21.476Z,50.13
2023-02-11T13:00:05.246Z,54.63
2023-02-11T13:02:54.398Z,46.60
2023-02-11T13:05:33.291Z,47.00
2023-02-11T13:08:30.009Z,52.83
2023-02-11T13:11:04.473Z,51.83
2023-02-11T13:13:37.119Z,66.37
2023-02-11T13:16:16.512Z,62.40
2023-02-11T13:19:01.384Z,66.13
2023-02-11T13:21:32.243Z,56.90
2023-02-11T13:24:13.796Z,61.43
2023-02-11T13:27:11.567Z,54.70
2023-02-11T13:29:58.267Z,52.00
2023-02-11T13:32:24.693Z,38.53
2023-02-11T13:34:51.093Z,43.67
2023-02-11T13:37:26.646Z,44.63
2023-02-11T13:40:04.768Z,40.67
2023-02-11T13:42:34.006Z,47.80
2023-02-11T13:45:01.365Z,51.20
2023-02-11T13:47:36.546Z,57.73
2023-02-11T13:50:06.344Z,56.70
2023-02-11T13:52:37.411Z,58.97
2023-02-11T13:55:21.524Z,47.97
2023-02-11T13:58:07.973Z,51.03
2023-02-11T14:00:34.317Z,45.50
2023-02-11T14:03:42.218Z,42.07
2023-02-11T14:06:26.940Z,48.47
2023-02-11T14:09:13.369Z,40.10
2023-02-11T14:11:49.703Z,42.90
2023-02-11T14:14:24.111Z,43.97
2023-02-11T14:17:00.206Z,41.57
2023-02-11T14:19:39.609Z,44.27
2023-02-11T14:22:17.020Z,43.20
2023-02-11T14:24:54.287Z,42.57
2023-02-11T14:27:27.677Z,40.30
2023-02-11T14:30:12.229Z,42.60
2023-02-11T14:33:06.283Z,43.70
2023-02-11T14:35:32.610Z,42.13
2023-02-11T14:38:37.788Z,44.63
2023-02-11T14:41:24.397Z,45.73
2023-02-11T14:43:55.372Z,43.50
2023-02-11T14:46:23.429Z,45.17
2023-02-11T14:48:53.700Z,39.23
2023-02-11T14:51:25.674Z,43.43
2023-02-11T14:54:04.682Z,39.80
2023-02-11T14:56:31.981Z,40.73
2023-02-11T14:58:58.676Z,45.30
2023-02-11T15:01:40.491Z,43.53
2023-02-11T15:04:23.655Z,43.90
2023-02-11T15:06:50.182Z,39.50
2023-02-11T15:09:26.804Z,42.70
2023-02-11T15:11:55.135Z,40.10
2023-02-11T15:14:31.168Z,39.97
2023-02-11T15:17:01.219Z,38.53
2023-02-11T15:19:41.613Z,40.60
2023-02-11T15:22:21.920Z,42.10
2023-02-11T15:25:06.797Z,41.37
2023-02-11T15:27:44.069Z,40.23
2023-02-11T15:30:22.619Z,38.60
2023-02-11T15:33:00.730Z,43.03
2023-02-11T15:35:36.924Z,43.93
2023-02-11T15:38:04.515Z,45.37
2023-02-11T15:40:34.757Z,39.07
2023-02-11T15:43:09.737Z,42.33
2023-02-11T15:45:40.272Z,43.50
2023-02-11T15:48:15.981Z,38.90
2023-02-11T15:50:48.432Z,43.33
2023-02-11T15:53:44.436Z,44.77
2023-02-11T15:56:20.097Z,40.80
2023-02-11T15:58:49.136Z,44.70
2023-02-11T16:01:15.732Z,45.63
2023-02-11T16:03:43.746Z,42.80
2023-02-11T16:06:25.963Z,40.13
2023-02-11T16:09:23.034Z,41.40
2023-02-11T16:11:49.296Z,46.17
2023-02-11T16:14:29.656Z,45.20
2023-02-11T16:17:10.959Z,47.03
2023-02-11T16:19:45.664Z,45.03
2023-02-11T16:22:17.625Z,41.43
2023-02-11T16:24:47.442Z,43.00
2023-02-11T16:27:28.412Z,43.27
2023-02-11T16:29:54.972Z,44.10
2023-02-11T16:32:24.528Z,44.47
2023-02-11T16:34:52.176Z,43.70
2023-02-11T16:37:18.602Z,50.03
2023-02-11T16:39:44.999Z,50.47
2023-02-11T16:42:12.181Z,53.53
2023-02-11T16:44:38.820Z,40.03
2023-02-11T16:47:08.213Z,47.17
2023-02-11T16:49:38.189Z,43.73
2023-02-11T16:52:12.543Z,44.33
2023-02-11T16:54:39.072Z,44.57
2023-02-11T16:57:13.824Z,46.80
2023-02-11T16:59:40.214Z,43.50
2023-02-11T17:02:14.371Z,43.87
2023-02-11T17:04:41.230Z,42.93
2023-02-11T17:07:07.666Z,49.80
2023-02-11T17:09:34.176Z,47.67
2023-02-11T17:12:00.802Z,45.27
2023-02-11T17:14:27.303Z,51.23
2023-02-11T17:16:53.687Z,49.00
2023-02-11T17:19:23.537Z,49.67
2023-02-11T17:21:52.361Z,53.00
2023-02-11T17:24:20.184Z,52.03
2023-02-11T17:26:47.183Z,52.23
2023-02-11T17:29:16.084Z,53.90
2023-02-11T17:31:43.229Z,52.70
2023-02-11T17:34:10.396Z,52.20
2023-02-11T17:36:36.873Z,51.13
2023-02-11T17:39:07.728Z,54.17
2023-02-11T17:41:36.529Z,52.87
2023-02-11T17:44:03.190Z,54.23
2023-02-11T17:46:29.664Z,52.97
2023-02-11T17:48:58.727Z,47.37
2023-02-11T17:51:30.489Z,52.77
2023-02-11T17:53:59.007Z,53.83
2023-02-11T17:56:25.683Z,50.53
2023-02-11T17:58:53.128Z,49.17
2023-02-11T18:01:20.197Z,47.27
2023-02-11T18:03:46.671Z,52.00
2023-02-11T18:06:13.154Z,48.27
2023-02-11T18:08:39.704Z,48.00
2023-02-11T18:11:09.781Z,49.80
2023-02-11T18:13:36.165Z,47.27
2023-02-11T18:16:04.155Z,48.63
2023-02-11T18:18:31.159Z,50.33
2023-02-11T18:20:58.967Z,47.40
2023-02-11T18:23:26.246Z,45.50
2023-02-11T18:25:53.248Z,45.73
2023-02-11T18:28:19.881Z,50.77
2023-02-11T18:30:46.302Z,47.30
2023-02-11T18:33:14.459Z,48.60
2023-02-11T18:35:41.723Z,48.93
2023-02-11T18:38:08.687Z,44.70
2023-02-11T18:40:38.489Z,47.30
2023-02-11T18:43:04.914Z,47.43
2023-02-11T18:45:31.609Z,45.87
2023-02-11T18:48:01.421Z,46.70
2023-02-11T18:50:27.833Z,46.37
2023-02-11T18:52:54.204Z,53.20
2023-02-11T18:55:25.257Z,50.27
2023-02-11T18:57:52.778Z,48.50
2023-02-11T19:00:20.300Z,52.87
2023-02-11T19:02:46.639Z,49.93
2023-02-11T19:05:13.253Z,47.20
2023-02-11T19:07:39.729Z,44.80
2023-02-11T19:10:07.049Z,42.20
2023-02-11T19:12:33.494Z,49.10
2023-02-11T19:15:00.700Z,46.57
2023-02-11T19:17:27.224Z,45.87
2023-02-11T19:19:53.647Z,46.57
2023-02-11T19:22:20.190Z,48.67
2023-02-11T19:24:46.554Z,48.17
2023-02-11T19:27:12.943Z,50.80
2023-02-11T19:29:39.284Z,52.87
2023-02-11T19:32:06.253Z,47.63
2023-02-11T19:34:33.315Z,50.27
2023-02-11T19:37:01.568Z,46.10
2023-02-11T19:39:28.180Z,48.07
2023-02-11T19:41:54.648Z,51.57
2023-02-11T19:44:21.234Z,47.97
2023-02-11T19:46:48.743Z,50.20
2023-02-11T19:49:22.716Z,46.03
2023-02-11T19:51:50.662Z,43.13
2023-02-11T19:54:17.214Z,46.43
2023-02-11T19:56:44.776Z,51.67
2023-02-11T19:59:11.693Z,48.00
2023-02-11T20:01:38.091Z,44.83
2023-02-11T20:04:05.304Z,45.77
2023-02-11T20:06:32.977Z,42.43
2023-02-11T20:09:06.471Z,45.87
2023-02-11T20:11:34.241Z,49.37
2023-02-11T20:14:00.688Z,46.00
2023-02-11T20:16:46.278Z,47.63
2023-02-11T20:19:17.579Z,48.30
2023-02-11T20:21:46.933Z,48.40
2023-02-11T20:24:14.110Z,53.77
2023-02-11T20:26:42.318Z,47.70
2023-02-11T20:29:08.837Z,48.23
2023-02-11T20:31:35.460Z,47.13
2023-02-11T20:34:02.324Z,49.77
2023-02-11T20:36:31.999Z,45.73
2023-02-11T20:39:00.010Z,46.27
2023-02-11T20:41:30.714Z,42.40
2023-02-11T20:44:01.192Z,45.73
2023-02-11T20:46:29.952Z,46.33
2023-02-11T20:48:57.565Z,47.43
2023-02-11T20:51:29.844Z,46.43
2023-02-11T20:53:57.198Z,51.53
2023-02-11T20:56:26.510Z,50.87
2023-02-11T20:58:53.594Z,50.60
2023-02-11T21:01:23.279Z,48.73
2023-02-11T21:03:58.211Z,54.57
2023-02-11T21:06:26.726Z,47.90
2023-02-11T21:08:54.086Z,48.43
2023-02-11T21:11:21.023Z,54.43
2023-02-11T21:13:48.609Z,52.03
2023-02-11T21:16:17.500Z,51.57
2023-02-11T21:18:43.946Z,51.53
2023-02-11T21:21:10.372Z,53.57
2023-02-11T21:23:39.418Z,50.47
2023-02-11T21:26:06.899Z,45.63
2023-02-11T21:28:33.900Z,53.67
2023-02-11T21:31:00.962Z,47.63
2023-02-11T21:33:27.939Z,47.90
2023-02-11T21:35:56.268Z,50.53
2023-02-11T21:38:23.321Z,50.27
2023-02-11T21:40:50.470Z,47.70
2023-02-11T21:43:16.934Z,49.00
2023-02-11T21:45:44.799Z,47.63
2023-02-11T21:48:12.435Z,51.10
2023-02-11T21:50:44.104Z,49.60
2023-02-11T21:53:11.357Z,48.00
2023-02-11T21:55:38.975Z,51.60
2023-02-11T21:58:06.129Z,48.33
2023-02-11T22:00:33.893Z,49.27
2023-02-11T22:03:00.815Z,52.97
2023-02-11T22:05:27.534Z,45.90
2023-02-11T22:07:54.109Z,45.33
2023-02-11T22:10:20.706Z,46.43
2023-02-11T22:12:47.540Z,51.47
2023-02-11T22:15:14.159Z,49.00
2023-02-11T22:17:40.652Z,49.03
2023-02-11T22:20:07.966Z,47.33
2023-02-11T22:22:35.414Z,43.90
2023-02-11T22:25:02.223Z,48.07
2023-02-11T22:27:28.747Z,47.33
2023-02-11T22:29:55.256Z,44.50
2023-02-11T22:32:21.717Z,47.13
2023-02-11T22:34:48.097Z,46.93
2023-02-11T22:37:15.013Z,46.67
2023-02-11T22:39:42.596Z,44.77
2023-02-11T22:42:09.095Z,43.97
2023-02-11T22:44:36.934Z,47.50
2023-02-11T22:47:03.484Z,50.47
2023-02-11T22:49:32.424Z,46.70
2023-02-11T22:51:59.351Z,48.30
2023-02-11T22:54:26.061Z,45.07
2023-02-11T22:56:53.240Z,45.67
2023-02-11T22:59:19.735Z,48.83
2023-02-11T23:01:46.501Z,49.27
2023-02-11T23:04:15.858Z,46.77
2023-02-11T23:06:42.651Z,51.93
2023-02-11T23:09:12.164Z,48.70
2023-02-11T23:11:39.180Z,49.77
2023-02-11T23:14:05.813Z,49.83
2023-02-11T23:16:34.124Z,47.03
2023-02-11T23:19:04.561Z,51.63
2023-02-11T23:21:33.093Z,46.30
2023-02-11T23:24:02.354Z,44.27
2023-02-11T23:26:28.926Z,49.00
2023-02-11T23:28:55.632Z,44.70
2023-02-11T23:31:31.458Z,43.47
2023-02-11T23:33:57.952Z,51.00
2023-02-11T23:36:24.376Z,47.80
2023-02-11T23:38:51.972Z,48.23
2023-02-11T23:41:18.520Z,46.43
2023-02-11T23:43:50.050Z,47.87
2023-02-11T23:46:16.612Z,44.80
2023-02-11T23:48:43.463Z,42.47
2023-02-11T23:51:09.891Z,47.73
2023-02-11T23:53:39.741Z,50.10
2023-02-11T23:56:13.290Z,47.13
2023-02-11T23:58:39.782Z,42.47
